sensor_id;sensor_type;location;lat;lon;timestamp;P1;durP1;ratioP1;P2;durP2;ratioP2
27539;SDS011;15906;52.046;4.724;2022-12-07T00:01:32;10.47;;;2.57;;
27539;SDS011;15906;52.046;4.724;2022-12-07T00:03:59;5.63;;;2.27;;
27539;SDS011;15906;52.046;4.724;2022-12-07T00:06:30;8.10;;;1.80;;
27539;SDS011;15906;52.046;4.724;2022-12-07T00:08:56;7.13;;;1.73;;
27539;SDS011;15906;52.046;4.724;2022-12-07T00:11:22;8.70;;;2.00;;
27539;SDS011;15906;52.046;4.724;2022-12-07T00:13:55;5.27;;;1.47;;
27539;SDS011;15906;52.046;4.724;2022-12-07T00:16:23;4.03;;;1.40;;
27539;SDS011;15906;52.046;4.724;2022-12-07T00:18:50;8.57;;;1.57;;
27539;SDS011;15906;52.046;4.724;2022-12-07T00:21:16;10.80;;;1.90;;
27539;SDS011;15906;52.046;4.724;2022-12-07T00:23:44;6.77;;;2.00;;
27539;SDS011;15906;52.046;4.724;2022-12-07T00:26:24;7.30;;;1.80;;
27539;SDS011;15906;52.046;4.724;2022-12-07T00:28:53;10.77;;;2.33;;
27539;SDS011;15906;52.046;4.724;2022-12-07T00:31:21;6.20;;;2.13;;
27539;SDS011;15906;52.046;4.724;2022-12-07T00:33:48;7.07;;;1.93;;
27539;SDS011;15906;52.046;4.724;2022-12-07T00:36:17;4.73;;;2.23;;
27539;SDS011;15906;52.046;4.724;2022-12-07T00:38:45;4.57;;;1.60;;
27539;SDS011;15906;52.046;4.724;2022-12-07T00:41:17;6.20;;;1.70;;
27539;SDS011;15906;52.046;4.724;2022-12-07T00:43:45;3.37;;;1.43;;
27539;SDS011;15906;52.046;4.724;2022-12-07T00:46:12;2.03;;;1.40;;
27539;SDS011;15906;52.046;4.724;2022-12-07T00:48:39;4.93;;;1.40;;
27539;SDS011;15906;52.046;4.724;2022-12-07T00:51:05;5.50;;;1.40;;
27539;SDS011;15906;52.046;4.724;2022-12-07T00:53:35;6.17;;;1.80;;
27539;SDS011;15906;52.046;4.724;2022-12-07T00:56:05;6.00;;;1.67;;
27539;SDS011;15906;52.046;4.724;2022-12-07T00:58:31;7.27;;;1.43;;
27539;SDS011;15906;52.046;4.724;2022-12-07T01:00:59;4.27;;;1.30;;
27539;SDS011;15906;52.046;4.724;2022-12-07T01:03:29;5.77;;;1.37;;
27539;SDS011;15906;52.046;4.724;2022-12-07T01:05:55;9.87;;;2.00;;
27539;SDS011;15906;52.046;4.724;2022-12-07T01:08:22;4.80;;;1.37;;
27539;SDS011;15906;52.046;4.724;2022-12-07T01:10:48;6.83;;;1.37;;
27539;SDS011;15906;52.046;4.724;2022-12-07T01:13:14;3.67;;;1.67;;
27539;SDS011;15906;52.046;4.724;2022-12-07T01:15:41;10.33;;;1.30;;
27539;SDS011;15906;52.046;4.724;2022-12-07T01:18:08;6.87;;;1.30;;
27539;SDS011;15906;52.046;4.724;2022-12-07T01:20:34;5.33;;;1.10;;
27539;SDS011;15906;52.046;4.724;2022-12-07T01:23:00;3.03;;;1.00;;
27539;SDS011;15906;52.046;4.724;2022-12-07T01:25:26;3.03;;;0.90;;
27539;SDS011;15906;52.046;4.724;2022-12-07T01:27:52;3.70;;;1.10;;
27539;SDS011;15906;52.046;4.724;2022-12-07T01:30:17;7.27;;;1.00;;
27539;SDS011;15906;52.046;4.724;2022-12-07T01:32:43;6.33;;;0.90;;
27539;SDS011;15906;52.046;4.724;2022-12-07T01:35:08;3.57;;;1.27;;
27539;SDS011;15906;52.046;4.724;2022-12-07T01:37:35;5.67;;;1.20;;
27539;SDS011;15906;52.046;4.724;2022-12-07T01:40:02;7.20;;;1.20;;
27539;SDS011;15906;52.046;4.724;2022-12-07T01:42:28;11.93;;;1.50;;
27539;SDS011;15906;52.046;4.724;2022-12-07T01:47:42;9.67;;;1.20;;
27539;SDS011;15906;52.046;4.724;2022-12-07T01:50:14;4.90;;;1.00;;
27539;SDS011;15906;52.046;4.724;2022-12-07T01:52:40;7.87;;;1.20;;
27539;SDS011;15906;52.046;4.724;2022-12-07T01:55:09;2.93;;;1.13;;
27539;SDS011;15906;52.046;4.724;2022-12-07T01:57:40;2.10;;;0.90;;
27539;SDS011;15906;52.046;4.724;2022-12-07T02:00:08;3.93;;;0.90;;
27539;SDS011;15906;52.046;4.724;2022-12-07T02:02:41;4.73;;;1.23;;
27539;SDS011;15906;52.046;4.724;2022-12-07T02:05:13;2.87;;;0.80;;
27539;SDS011;15906;52.046;4.724;2022-12-07T02:07:39;3.43;;;0.73;;
27539;SDS011;15906;52.046;4.724;2022-12-07T02:10:12;3.97;;;0.80;;
27539;SDS011;15906;52.046;4.724;2022-12-07T02:12:37;8.07;;;1.30;;
27539;SDS011;15906;52.046;4.724;2022-12-07T02:15:03;13.83;;;1.67;;
27539;SDS011;15906;52.046;4.724;2022-12-07T02:17:36;4.23;;;0.90;;
27539;SDS011;15906;52.046;4.724;2022-12-07T02:22:51;9.70;;;1.13;;
27539;SDS011;15906;52.046;4.724;2022-12-07T02:30:58;11.40;;;1.37;;
27539;SDS011;15906;52.046;4.724;2022-12-07T02:33:32;10.27;;;1.87;;
27539;SDS011;15906;52.046;4.724;2022-12-07T02:36:04;5.17;;;0.77;;
27539;SDS011;15906;52.046;4.724;2022-12-07T02:41:25;6.73;;;0.97;;
27539;SDS011;15906;52.046;4.724;2022-12-07T02:43:58;2.50;;;0.80;;
27539;SDS011;15906;52.046;4.724;2022-12-07T02:46:36;2.60;;;0.83;;
27539;SDS011;15906;52.046;4.724;2022-12-07T02:49:05;4.27;;;1.20;;
27539;SDS011;15906;52.046;4.724;2022-12-07T02:51:33;6.37;;;1.17;;
27539;SDS011;15906;52.046;4.724;2022-12-07T02:53:59;5.50;;;1.27;;
27539;SDS011;15906;52.046;4.724;2022-12-07T03:10:14;6.17;;;1.07;;
27539;SDS011;15906;52.046;4.724;2022-12-07T03:18:46;4.40;;;1.00;;
27539;SDS011;15906;52.046;4.724;2022-12-07T03:21:31;2.27;;;0.90;;
27539;SDS011;15906;52.046;4.724;2022-12-07T03:24:02;4.33;;;0.60;;
27539;SDS011;15906;52.046;4.724;2022-12-07T03:26:32;4.63;;;0.90;;
27539;SDS011;15906;52.046;4.724;2022-12-07T03:29:02;2.93;;;0.67;;
27539;SDS011;15906;52.046;4.724;2022-12-07T03:31:40;6.27;;;0.70;;
27539;SDS011;15906;52.046;4.724;2022-12-07T03:39:22;9.60;;;1.23;;
27539;SDS011;15906;52.046;4.724;2022-12-07T03:41:57;10.63;;;1.17;;
27539;SDS011;15906;52.046;4.724;2022-12-07T03:44:25;7.97;;;1.30;;
27539;SDS011;15906;52.046;4.724;2022-12-07T03:52:14;4.10;;;0.83;;
27539;SDS011;15906;52.046;4.724;2022-12-07T03:55:00;2.83;;;0.60;;
27539;SDS011;15906;52.046;4.724;2022-12-07T03:57:52;6.87;;;0.80;;
27539;SDS011;15906;52.046;4.724;2022-12-07T04:00:21;6.03;;;0.90;;
27539;SDS011;15906;52.046;4.724;2022-12-07T04:02:47;2.83;;;1.17;;
27539;SDS011;15906;52.046;4.724;2022-12-07T04:05:15;2.93;;;0.73;;
27539;SDS011;15906;52.046;4.724;2022-12-07T04:07:41;9.00;;;0.97;;
27539;SDS011;15906;52.046;4.724;2022-12-07T04:10:07;9.43;;;0.70;;
27539;SDS011;15906;52.046;4.724;2022-12-07T04:12:33;12.23;;;0.90;;
27539;SDS011;15906;52.046;4.724;2022-12-07T04:14:58;3.83;;;1.37;;
27539;SDS011;15906;52.046;4.724;2022-12-07T04:17:24;3.53;;;0.70;;
27539;SDS011;15906;52.046;4.724;2022-12-07T04:19:49;5.80;;;0.90;;
27539;SDS011;15906;52.046;4.724;2022-12-07T04:22:15;7.40;;;0.60;;
27539;SDS011;15906;52.046;4.724;2022-12-07T04:24:41;7.23;;;0.90;;
27539;SDS011;15906;52.046;4.724;2022-12-07T04:27:06;2.30;;;0.70;;
27539;SDS011;15906;52.046;4.724;2022-12-07T04:29:32;2.60;;;0.87;;
27539;SDS011;15906;52.046;4.724;2022-12-07T04:31:57;3.93;;;0.80;;
27539;SDS011;15906;52.046;4.724;2022-12-07T04:34:23;6.53;;;1.33;;
27539;SDS011;15906;52.046;4.724;2022-12-07T04:36:48;5.00;;;1.00;;
27539;SDS011;15906;52.046;4.724;2022-12-07T04:39:32;9.23;;;1.00;;
27539;SDS011;15906;52.046;4.724;2022-12-07T04:41:58;3.50;;;1.07;;
27539;SDS011;15906;52.046;4.724;2022-12-07T04:44:25;5.90;;;1.17;;
27539;SDS011;15906;52.046;4.724;2022-12-07T04:46:53;5.47;;;0.93;;
27539;SDS011;15906;52.046;4.724;2022-12-07T04:49:19;7.30;;;0.97;;
27539;SDS011;15906;52.046;4.724;2022-12-07T04:51:45;8.77;;;0.87;;
27539;SDS011;15906;52.046;4.724;2022-12-07T04:54:11;5.40;;;1.00;;
27539;SDS011;15906;52.046;4.724;2022-12-07T04:56:38;7.03;;;1.43;;
27539;SDS011;15906;52.046;4.724;2022-12-07T04:59:04;4.73;;;0.80;;
27539;SDS011;15906;52.046;4.724;2022-12-07T05:01:30;4.57;;;1.20;;
27539;SDS011;15906;52.046;4.724;2022-12-07T05:03:57;6.27;;;1.00;;
27539;SDS011;15906;52.046;4.724;2022-12-07T05:06:23;7.93;;;1.17;;
27539;SDS011;15906;52.046;4.724;2022-12-07T05:08:49;5.80;;;0.90;;
27539;SDS011;15906;52.046;4.724;2022-12-07T05:11:14;5.27;;;0.90;;
27539;SDS011;15906;52.046;4.724;2022-12-07T05:13:59;4.77;;;0.63;;
27539;SDS011;15906;52.046;4.724;2022-12-07T05:16:25;4.27;;;1.00;;
27539;SDS011;15906;52.046;4.724;2022-12-07T05:18:50;6.03;;;1.13;;
27539;SDS011;15906;52.046;4.724;2022-12-07T05:21:16;7.00;;;1.20;;
27539;SDS011;15906;52.046;4.724;2022-12-07T05:23:41;7.47;;;1.07;;
27539;SDS011;15906;52.046;4.724;2022-12-07T05:26:07;6.20;;;1.10;;
27539;SDS011;15906;52.046;4.724;2022-12-07T05:28:32;7.43;;;1.27;;
27539;SDS011;15906;52.046;4.724;2022-12-07T05:30:58;7.63;;;1.10;;
27539;SDS011;15906;52.046;4.724;2022-12-07T05:33:24;6.97;;;0.80;;
27539;SDS011;15906;52.046;4.724;2022-12-07T05:35:49;3.63;;;0.80;;
27539;SDS011;15906;52.046;4.724;2022-12-07T05:38:15;5.43;;;1.47;;
27539;SDS011;15906;52.046;4.724;2022-12-07T05:40:40;9.17;;;1.50;;
27539;SDS011;15906;52.046;4.724;2022-12-07T05:43:06;6.93;;;1.27;;
27539;SDS011;15906;52.046;4.724;2022-12-07T05:45:31;7.20;;;1.10;;
27539;SDS011;15906;52.046;4.724;2022-12-07T05:47:57;7.77;;;1.10;;
27539;SDS011;15906;52.046;4.724;2022-12-07T05:50:22;5.57;;;1.20;;
27539;SDS011;15906;52.046;4.724;2022-12-07T05:52:48;4.67;;;1.00;;
27539;SDS011;15906;52.046;4.724;2022-12-07T05:55:13;8.53;;;1.30;;
27539;SDS011;15906;52.046;4.724;2022-12-07T05:57:39;11.83;;;1.70;;
27539;SDS011;15906;52.046;4.724;2022-12-07T06:00:24;4.83;;;1.03;;
27539;SDS011;15906;52.046;4.724;2022-12-07T06:02:50;5.77;;;1.07;;
27539;SDS011;15906;52.046;4.724;2022-12-07T06:05:15;10.77;;;1.87;;
27539;SDS011;15906;52.046;4.724;2022-12-07T06:07:41;6.60;;;1.10;;
27539;SDS011;15906;52.046;4.724;2022-12-07T06:10:07;4.47;;;1.03;;
27539;SDS011;15906;52.046;4.724;2022-12-07T06:12:33;3.50;;;1.30;;
27539;SDS011;15906;52.046;4.724;2022-12-07T06:14:58;5.23;;;1.33;;
27539;SDS011;15906;52.046;4.724;2022-12-07T06:17:24;4.93;;;1.30;;
27539;SDS011;15906;52.046;4.724;2022-12-07T06:19:49;6.67;;;1.50;;
27539;SDS011;15906;52.046;4.724;2022-12-07T06:22:15;8.50;;;1.67;;
27539;SDS011;15906;52.046;4.724;2022-12-07T06:24:41;11.77;;;2.03;;
27539;SDS011;15906;52.046;4.724;2022-12-07T06:27:07;5.03;;;1.53;;
27539;SDS011;15906;52.046;4.724;2022-12-07T06:29:34;5.40;;;1.30;;
27539;SDS011;15906;52.046;4.724;2022-12-07T06:31:59;4.50;;;1.27;;
27539;SDS011;15906;52.046;4.724;2022-12-07T06:34:26;3.50;;;1.10;;
27539;SDS011;15906;52.046;4.724;2022-12-07T06:36:51;6.40;;;1.77;;
27539;SDS011;15906;52.046;4.724;2022-12-07T06:39:20;6.47;;;1.50;;
27539;SDS011;15906;52.046;4.724;2022-12-07T06:41:47;2.90;;;1.07;;
27539;SDS011;15906;52.046;4.724;2022-12-07T06:44:13;7.87;;;1.40;;
27539;SDS011;15906;52.046;4.724;2022-12-07T06:46:39;7.67;;;2.20;;
27539;SDS011;15906;52.046;4.724;2022-12-07T06:49:04;12.23;;;2.23;;
27539;SDS011;15906;52.046;4.724;2022-12-07T06:51:31;9.10;;;2.57;;
27539;SDS011;15906;52.046;4.724;2022-12-07T06:53:57;9.73;;;2.33;;
27539;SDS011;15906;52.046;4.724;2022-12-07T06:56:23;8.77;;;1.67;;
27539;SDS011;15906;52.046;4.724;2022-12-07T06:58:49;6.57;;;2.27;;
27539;SDS011;15906;52.046;4.724;2022-12-07T07:01:15;10.77;;;2.10;;
27539;SDS011;15906;52.046;4.724;2022-12-07T07:03:43;13.83;;;2.03;;
27539;SDS011;15906;52.046;4.724;2022-12-07T07:06:10;10.53;;;2.47;;
27539;SDS011;15906;52.046;4.724;2022-12-07T07:08:36;6.93;;;1.70;;
27539;SDS011;15906;52.046;4.724;2022-12-07T07:11:02;7.53;;;1.80;;
27539;SDS011;15906;52.046;4.724;2022-12-07T07:13:28;5.77;;;1.77;;
27539;SDS011;15906;52.046;4.724;2022-12-07T07:15:54;13.10;;;2.17;;
27539;SDS011;15906;52.046;4.724;2022-12-07T07:18:20;5.90;;;1.93;;
27539;SDS011;15906;52.046;4.724;2022-12-07T07:20:45;9.90;;;1.97;;
27539;SDS011;15906;52.046;4.724;2022-12-07T07:23:11;7.47;;;1.97;;
27539;SDS011;15906;52.046;4.724;2022-12-07T07:25:36;3.80;;;1.40;;
27539;SDS011;15906;52.046;4.724;2022-12-07T07:28:02;6.73;;;1.10;;
27539;SDS011;15906;52.046;4.724;2022-12-07T07:30:28;5.93;;;1.70;;
27539;SDS011;15906;52.046;4.724;2022-12-07T07:32:57;6.67;;;1.70;;
27539;SDS011;15906;52.046;4.724;2022-12-07T07:35:24;5.27;;;1.90;;
27539;SDS011;15906;52.046;4.724;2022-12-07T07:37:50;8.20;;;1.90;;
27539;SDS011;15906;52.046;4.724;2022-12-07T07:40:16;5.70;;;1.80;;
27539;SDS011;15906;52.046;4.724;2022-12-07T07:42:41;6.87;;;2.17;;
27539;SDS011;15906;52.046;4.724;2022-12-07T07:45:07;4.40;;;1.63;;
27539;SDS011;15906;52.046;4.724;2022-12-07T07:47:33;4.10;;;1.70;;
27539;SDS011;15906;52.046;4.724;2022-12-07T07:49:58;3.47;;;1.63;;
27539;SDS011;15906;52.046;4.724;2022-12-07T07:52:24;6.50;;;2.33;;
27539;SDS011;15906;52.046;4.724;2022-12-07T07:54:50;11.17;;;3.10;;
27539;SDS011;15906;52.046;4.724;2022-12-07T07:57:16;6.93;;;2.43;;
27539;SDS011;15906;52.046;4.724;2022-12-07T07:59:42;5.67;;;2.20;;
27539;SDS011;15906;52.046;4.724;2022-12-07T08:02:17;8.10;;;1.90;;
27539;SDS011;15906;52.046;4.724;2022-12-07T08:04:45;10.10;;;1.73;;
27539;SDS011;15906;52.046;4.724;2022-12-07T08:07:11;4.97;;;1.40;;
27539;SDS011;15906;52.046;4.724;2022-12-07T08:09:37;7.23;;;1.50;;
27539;SDS011;15906;52.046;4.724;2022-12-07T08:12:03;3.03;;;1.43;;
27539;SDS011;15906;52.046;4.724;2022-12-07T08:14:29;8.80;;;1.97;;
27539;SDS011;15906;52.046;4.724;2022-12-07T08:16:54;7.13;;;1.70;;
27539;SDS011;15906;52.046;4.724;2022-12-07T08:19:20;7.50;;;1.60;;
27539;SDS011;15906;52.046;4.724;2022-12-07T08:21:45;4.57;;;1.67;;
27539;SDS011;15906;52.046;4.724;2022-12-07T08:24:11;3.53;;;1.40;;
27539;SDS011;15906;52.046;4.724;2022-12-07T08:26:37;7.50;;;1.40;;
27539;SDS011;15906;52.046;4.724;2022-12-07T08:29:02;4.90;;;1.80;;
27539;SDS011;15906;52.046;4.724;2022-12-07T08:31:28;8.17;;;1.50;;
27539;SDS011;15906;52.046;4.724;2022-12-07T08:33:54;4.83;;;2.10;;
27539;SDS011;15906;52.046;4.724;2022-12-07T08:36:20;10.17;;;3.00;;
27539;SDS011;15906;52.046;4.724;2022-12-07T08:38:47;4.80;;;2.67;;
27539;SDS011;15906;52.046;4.724;2022-12-07T08:41:13;7.33;;;2.63;;
27539;SDS011;15906;52.046;4.724;2022-12-07T08:43:38;6.67;;;2.63;;
27539;SDS011;15906;52.046;4.724;2022-12-07T08:48:56;6.73;;;2.40;;
27539;SDS011;15906;52.046;4.724;2022-12-07T08:51:43;10.57;;;2.47;;
27539;SDS011;15906;52.046;4.724;2022-12-07T08:54:11;8.43;;;2.13;;
27539;SDS011;15906;52.046;4.724;2022-12-07T08:56:39;4.00;;;1.70;;
27539;SDS011;15906;52.046;4.724;2022-12-07T08:59:06;5.23;;;1.90;;
27539;SDS011;15906;52.046;4.724;2022-12-07T09:01:32;5.47;;;2.10;;
27539;SDS011;15906;52.046;4.724;2022-12-07T09:03:58;4.20;;;2.10;;
27539;SDS011;15906;52.046;4.724;2022-12-07T09:06:24;6.33;;;2.10;;
27539;SDS011;15906;52.046;4.724;2022-12-07T09:08:50;4.53;;;2.10;;
27539;SDS011;15906;52.046;4.724;2022-12-07T09:11:20;10.00;;;2.40;;
27539;SDS011;15906;52.046;4.724;2022-12-07T09:13:45;6.40;;;2.10;;
27539;SDS011;15906;52.046;4.724;2022-12-07T09:16:11;4.10;;;1.97;;
27539;SDS011;15906;52.046;4.724;2022-12-07T09:18:37;5.20;;;1.77;;
27539;SDS011;15906;52.046;4.724;2022-12-07T09:21:03;9.87;;;3.17;;
27539;SDS011;15906;52.046;4.724;2022-12-07T09:23:29;5.83;;;1.83;;
27539;SDS011;15906;52.046;4.724;2022-12-07T09:25:54;4.10;;;1.27;;
27539;SDS011;15906;52.046;4.724;2022-12-07T09:28:20;6.83;;;1.07;;
27539;SDS011;15906;52.046;4.724;2022-12-07T09:30:46;4.63;;;1.30;;
27539;SDS011;15906;52.046;4.724;2022-12-07T09:33:12;4.50;;;1.10;;
27539;SDS011;15906;52.046;4.724;2022-12-07T09:35:38;3.23;;;0.70;;
27539;SDS011;15906;52.046;4.724;2022-12-07T09:38:08;3.90;;;0.80;;
27539;SDS011;15906;52.046;4.724;2022-12-07T09:40:34;2.67;;;1.10;;
27539;SDS011;15906;52.046;4.724;2022-12-07T09:42:59;3.50;;;1.00;;
27539;SDS011;15906;52.046;4.724;2022-12-07T09:45:27;1.63;;;0.87;;
27539;SDS011;15906;52.046;4.724;2022-12-07T09:48:03;1.70;;;1.00;;
27539;SDS011;15906;52.046;4.724;2022-12-07T09:50:29;2.87;;;1.10;;
27539;SDS011;15906;52.046;4.724;2022-12-07T09:53:03;2.17;;;0.90;;
27539;SDS011;15906;52.046;4.724;2022-12-07T09:55:38;3.17;;;1.10;;
27539;SDS011;15906;52.046;4.724;2022-12-07T09:58:05;2.97;;;1.10;;
27539;SDS011;15906;52.046;4.724;2022-12-07T10:00:31;4.47;;;1.03;;
27539;SDS011;15906;52.046;4.724;2022-12-07T10:03:00;2.30;;;1.53;;
27539;SDS011;15906;52.046;4.724;2022-12-07T10:05:28;5.53;;;1.10;;
27539;SDS011;15906;52.046;4.724;2022-12-07T10:08:00;8.27;;;1.40;;
27539;SDS011;15906;52.046;4.724;2022-12-07T10:10:29;3.33;;;1.83;;
27539;SDS011;15906;52.046;4.724;2022-12-07T10:13:42;4.83;;;1.33;;
27539;SDS011;15906;52.046;4.724;2022-12-07T10:15:50;2.47;;;1.30;;
27539;SDS011;15906;52.046;4.724;2022-12-07T10:23:29;2.28;;;1.25;;
27539;SDS011;15906;52.046;4.724;2022-12-07T10:25:55;4.80;;;1.30;;
27539;SDS011;15906;52.046;4.724;2022-12-07T10:28:21;2.47;;;1.05;;
27539;SDS011;15906;52.046;4.724;2022-12-07T10:30:48;4.45;;;1.25;;
27539;SDS011;15906;52.046;4.724;2022-12-07T10:39:15;3.95;;;1.38;;
27539;SDS011;15906;52.046;4.724;2022-12-07T10:41:54;2.63;;;1.10;;
27539;SDS011;15906;52.046;4.724;2022-12-07T10:44:26;4.10;;;1.38;;
27539;SDS011;15906;52.046;4.724;2022-12-07T10:52:25;5.50;;;1.75;;
27539;SDS011;15906;52.046;4.724;2022-12-07T10:57:49;2.95;;;1.33;;
27539;SDS011;15906;52.046;4.724;2022-12-07T11:00:24;5.47;;;1.48;;
27539;SDS011;15906;52.046;4.724;2022-12-07T11:05:45;6.07;;;2.10;;
27539;SDS011;15906;52.046;4.724;2022-12-07T11:08:21;7.40;;;1.63;;
27539;SDS011;15906;52.046;4.724;2022-12-07T11:13:28;10.43;;;1.30;;
27539;SDS011;15906;52.046;4.724;2022-12-07T11:18:38;3.45;;;1.08;;
27539;SDS011;15906;52.046;4.724;2022-12-07T11:21:16;6.22;;;1.50;;
27539;SDS011;15906;52.046;4.724;2022-12-07T11:24:10;3.60;;;1.40;;
27539;SDS011;15906;52.046;4.724;2022-12-07T11:29:24;4.05;;;1.50;;
27539;SDS011;15906;52.046;4.724;2022-12-07T11:37:56;7.03;;;1.38;;
27539;SDS011;15906;52.046;4.724;2022-12-07T11:40:27;9.32;;;1.60;;
27539;SDS011;15906;52.046;4.724;2022-12-07T11:43:11;4.07;;;1.35;;
27539;SDS011;15906;52.046;4.724;2022-12-07T11:45:43;10.05;;;1.40;;
27539;SDS011;15906;52.046;4.724;2022-12-07T11:50:53;5.22;;;1.58;;
27539;SDS011;15906;52.046;4.724;2022-12-07T11:53:26;6.90;;;1.17;;
27539;SDS011;15906;52.046;4.724;2022-12-07T12:01:06;6.47;;;1.10;;
27539;SDS011;15906;52.046;4.724;2022-12-07T12:03:54;4.13;;;1.05;;
27539;SDS011;15906;52.046;4.724;2022-12-07T12:06:22;2.33;;;0.85;;
27539;SDS011;15906;52.046;4.724;2022-12-07T12:15:08;5.50;;;1.10;;
27539;SDS011;15906;52.046;4.724;2022-12-07T12:18:01;5.53;;;1.27;;
27539;SDS011;15906;52.046;4.724;2022-12-07T12:20:53;5.50;;;1.10;;
27539;SDS011;15906;52.046;4.724;2022-12-07T12:25:54;5.30;;;0.90;;
27539;SDS011;15906;52.046;4.724;2022-12-07T12:33:37;5.07;;;1.30;;
27539;SDS011;15906;52.046;4.724;2022-12-07T12:36:21;3.38;;;1.17;;
27539;SDS011;15906;52.046;4.724;2022-12-07T12:47:02;3.40;;;0.90;;
27539;SDS011;15906;52.046;4.724;2022-12-07T12:54:41;4.88;;;1.20;;
27539;SDS011;15906;52.046;4.724;2022-12-07T12:57:33;5.90;;;1.20;;
27539;SDS011;15906;52.046;4.724;2022-12-07T13:00:00;5.22;;;1.00;;
27539;SDS011;15906;52.046;4.724;2022-12-07T13:02:49;4.50;;;0.95;;
27539;SDS011;15906;52.046;4.724;2022-12-07T13:05:17;3.10;;;0.73;;
27539;SDS011;15906;52.046;4.724;2022-12-07T13:07:55;2.50;;;0.70;;
27539;SDS011;15906;52.046;4.724;2022-12-07T13:31:41;3.25;;;0.60;;
27539;SDS011;15906;52.046;4.724;2022-12-07T13:34:29;5.68;;;0.70;;
27539;SDS011;15906;52.046;4.724;2022-12-07T13:37:15;8.88;;;0.98;;
27539;SDS011;15906;52.046;4.724;2022-12-07T13:44:53;1.63;;;0.50;;
27539;SDS011;15906;52.046;4.724;2022-12-07T13:47:41;1.65;;;0.55;;
27539;SDS011;15906;52.046;4.724;2022-12-07T13:50:22;2.38;;;1.23;;
27539;SDS011;15906;52.046;4.724;2022-12-07T13:52:49;4.18;;;0.57;;
27539;SDS011;15906;52.046;4.724;2022-12-07T13:55:16;2.53;;;0.50;;
27539;SDS011;15906;52.046;4.724;2022-12-07T13:57:42;1.13;;;0.47;;
27539;SDS011;15906;52.046;4.724;2022-12-07T14:00:18;2.60;;;0.50;;
27539;SDS011;15906;52.046;4.724;2022-12-07T14:05:30;2.03;;;0.80;;
27539;SDS011;15906;52.046;4.724;2022-12-07T14:08:05;7.13;;;0.80;;
27539;SDS011;15906;52.046;4.724;2022-12-07T14:13:34;2.30;;;0.50;;
27539;SDS011;15906;52.046;4.724;2022-12-07T14:16:01;4.78;;;0.65;;
27539;SDS011;15906;52.046;4.724;2022-12-07T14:18:42;3.10;;;0.80;;
27539;SDS011;15906;52.046;4.724;2022-12-07T14:23:36;2.50;;;0.70;;
27539;SDS011;15906;52.046;4.724;2022-12-07T14:28:38;3.72;;;1.02;;
27539;SDS011;15906;52.046;4.724;2022-12-07T14:31:15;1.25;;;0.52;;
27539;SDS011;15906;52.046;4.724;2022-12-07T14:33:43;8.10;;;1.10;;
27539;SDS011;15906;52.046;4.724;2022-12-07T14:36:09;4.57;;;0.90;;
27539;SDS011;15906;52.046;4.724;2022-12-07T14:38:37;3.33;;;1.00;;
27539;SDS011;15906;52.046;4.724;2022-12-07T14:41:03;4.95;;;0.77;;
27539;SDS011;15906;52.046;4.724;2022-12-07T14:43:54;4.32;;;1.08;;
27539;SDS011;15906;52.046;4.724;2022-12-07T14:46:19;2.20;;;0.93;;
27539;SDS011;15906;52.046;4.724;2022-12-07T14:48:45;3.42;;;1.00;;
27539;SDS011;15906;52.046;4.724;2022-12-07T14:51:10;2.47;;;0.90;;
27539;SDS011;15906;52.046;4.724;2022-12-07T14:53:39;4.97;;;0.88;;
27539;SDS011;15906;52.046;4.724;2022-12-07T14:56:09;2.85;;;0.93;;
27539;SDS011;15906;52.046;4.724;2022-12-07T14:58:35;3.95;;;1.20;;
27539;SDS011;15906;52.046;4.724;2022-12-07T15:01:00;6.20;;;1.33;;
27539;SDS011;15906;52.046;4.724;2022-12-07T15:03:26;2.08;;;1.70;;
27539;SDS011;15906;52.046;4.724;2022-12-07T15:05:51;2.30;;;1.13;;
27539;SDS011;15906;52.046;4.724;2022-12-07T15:08:17;4.05;;;1.23;;
27539;SDS011;15906;52.046;4.724;2022-12-07T15:10:43;2.15;;;1.20;;
27539;SDS011;15906;52.046;4.724;2022-12-07T15:13:08;3.25;;;1.33;;
27539;SDS011;15906;52.046;4.724;2022-12-07T15:15:53;3.83;;;1.77;;
27539;SDS011;15906;52.046;4.724;2022-12-07T15:18:20;4.00;;;1.80;;
27539;SDS011;15906;52.046;4.724;2022-12-07T15:20:46;4.80;;;1.50;;
27539;SDS011;15906;52.046;4.724;2022-12-07T15:23:12;3.22;;;1.08;;
27539;SDS011;15906;52.046;4.724;2022-12-07T15:25:41;4.35;;;1.20;;
27539;SDS011;15906;52.046;4.724;2022-12-07T15:28:07;4.35;;;1.40;;
27539;SDS011;15906;52.046;4.724;2022-12-07T15:30:33;1.85;;;1.10;;
27539;SDS011;15906;52.046;4.724;2022-12-07T15:32:59;3.00;;;1.50;;
27539;SDS011;15906;52.046;4.724;2022-12-07T15:35:24;7.70;;;1.75;;
27539;SDS011;15906;52.046;4.724;2022-12-07T15:37:50;8.95;;;2.28;;
27539;SDS011;15906;52.046;4.724;2022-12-07T15:40:15;7.93;;;2.90;;
27539;SDS011;15906;52.046;4.724;2022-12-07T15:42:41;7.38;;;2.53;;
27539;SDS011;15906;52.046;4.724;2022-12-07T15:45:07;12.95;;;6.93;;
27539;SDS011;15906;52.046;4.724;2022-12-07T15:47:37;7.53;;;3.85;;
27539;SDS011;15906;52.046;4.724;2022-12-07T15:50:10;7.60;;;3.08;;
27539;SDS011;15906;52.046;4.724;2022-12-07T15:52:37;8.25;;;2.50;;
27539;SDS011;15906;52.046;4.724;2022-12-07T15:55:03;5.53;;;2.25;;
27539;SDS011;15906;52.046;4.724;2022-12-07T15:57:30;3.67;;;1.50;;
27539;SDS011;15906;52.046;4.724;2022-12-07T15:59:57;2.47;;;1.40;;
27539;SDS011;15906;52.046;4.724;2022-12-07T16:02:23;3.83;;;1.13;;
27539;SDS011;15906;52.046;4.724;2022-12-07T16:04:49;4.75;;;1.73;;
27539;SDS011;15906;52.046;4.724;2022-12-07T16:07:15;5.15;;;1.70;;
27539;SDS011;15906;52.046;4.724;2022-12-07T16:09:42;4.47;;;2.90;;
27539;SDS011;15906;52.046;4.724;2022-12-07T16:12:08;5.82;;;2.10;;
27539;SDS011;15906;52.046;4.724;2022-12-07T16:14:34;5.38;;;2.10;;
27539;SDS011;15906;52.046;4.724;2022-12-07T16:17:00;7.40;;;2.65;;
27539;SDS011;15906;52.046;4.724;2022-12-07T16:19:25;4.15;;;2.08;;
27539;SDS011;15906;52.046;4.724;2022-12-07T16:21:51;6.25;;;2.97;;
27539;SDS011;15906;52.046;4.724;2022-12-07T16:24:16;5.20;;;2.30;;
27539;SDS011;15906;52.046;4.724;2022-12-07T16:26:42;6.33;;;3.23;;
27539;SDS011;15906;52.046;4.724;2022-12-07T16:29:12;4.30;;;2.45;;
27539;SDS011;15906;52.046;4.724;2022-12-07T16:31:38;7.28;;;3.20;;
27539;SDS011;15906;52.046;4.724;2022-12-07T16:34:04;15.95;;;7.68;;
27539;SDS011;15906;52.046;4.724;2022-12-07T16:36:29;11.10;;;6.43;;
27539;SDS011;15906;52.046;4.724;2022-12-07T16:38:55;11.07;;;6.63;;
27539;SDS011;15906;52.046;4.724;2022-12-07T16:41:22;7.67;;;5.50;;
27539;SDS011;15906;52.046;4.724;2022-12-07T16:43:48;6.50;;;4.57;;
27539;SDS011;15906;52.046;4.724;2022-12-07T16:46:14;5.53;;;4.50;;
27539;SDS011;15906;52.046;4.724;2022-12-07T16:48:40;5.83;;;3.67;;
27539;SDS011;15906;52.046;4.724;2022-12-07T16:51:07;4.83;;;3.87;;
27539;SDS011;15906;52.046;4.724;2022-12-07T16:53:34;5.03;;;3.45;;
27539;SDS011;15906;52.046;4.724;2022-12-07T16:56:01;5.43;;;3.03;;
27539;SDS011;15906;52.046;4.724;2022-12-07T16:58:27;5.67;;;2.87;;
27539;SDS011;15906;52.046;4.724;2022-12-07T17:00:53;8.20;;;2.70;;
27539;SDS011;15906;52.046;4.724;2022-12-07T17:03:19;5.80;;;2.43;;
27539;SDS011;15906;52.046;4.724;2022-12-07T17:05:44;4.47;;;2.97;;
27539;SDS011;15906;52.046;4.724;2022-12-07T17:08:11;6.07;;;3.28;;
27539;SDS011;15906;52.046;4.724;2022-12-07T17:10:38;6.03;;;2.80;;
27539;SDS011;15906;52.046;4.724;2022-12-07T17:13:06;5.33;;;2.63;;
27539;SDS011;15906;52.046;4.724;2022-12-07T17:15:59;7.50;;;3.40;;
27539;SDS011;15906;52.046;4.724;2022-12-07T17:18:30;9.03;;;5.63;;
27539;SDS011;15906;52.046;4.724;2022-12-07T17:21:01;11.97;;;7.30;;
27539;SDS011;15906;52.046;4.724;2022-12-07T17:23:28;12.77;;;6.63;;
27539;SDS011;15906;52.046;4.724;2022-12-07T17:25:55;8.70;;;5.63;;
27539;SDS011;15906;52.046;4.724;2022-12-07T17:28:20;7.70;;;4.50;;
27539;SDS011;15906;52.046;4.724;2022-12-07T17:30:46;8.55;;;4.03;;